sensor_id;sensor_type;location;lat;lon;timestamp;P1;durP1;ratioP1;P2;durP2;ratioP2
4533;SDS011;2279;51.448;7.306;2023-09-19T00:01:07;248.93;;;101.30;;
4533;SDS011;2279;51.448;7.306;2023-09-19T00:03:34;249.27;;;101.10;;
4533;SDS011;2279;51.448;7.306;2023-09-19T00:06:02;249.47;;;103.17;;
4533;SDS011;2279;51.448;7.306;2023-09-19T00:08:30;247.93;;;99.33;;
4533;SDS011;2279;51.448;7.306;2023-09-19T00:10:56;246.77;;;98.83;;
4533;SDS011;2279;51.448;7.306;2023-09-19T00:13:30;250.37;;;102.73;;
4533;SDS011;2279;51.448;7.306;2023-09-19T00:15:56;248.77;;;100.67;;
4533;SDS011;2279;51.448;7.306;2023-09-19T00:18:24;254.47;;;105.37;;
4533;SDS011;2279;51.448;7.306;2023-09-19T00:20:56;250.53;;;100.53;;
4533;SDS011;2279;51.448;7.306;2023-09-19T00:23:22;249.03;;;100.57;;
4533;SDS011;2279;51.448;7.306;2023-09-19T00:25:49;249.63;;;105.73;;
4533;SDS011;2279;51.448;7.306;2023-09-19T00:28:16;252.37;;;107.53;;
4533;SDS011;2279;51.448;7.306;2023-09-19T00:30:45;263.10;;;110.57;;
4533;SDS011;2279;51.448;7.306;2023-09-19T00:33:20;246.73;;;97.73;;
4533;SDS011;2279;51.448;7.306;2023-09-19T00:35:49;249.87;;;102.33;;
4533;SDS011;2279;51.448;7.306;2023-09-19T00:38:15;251.77;;;102.37;;
4533;SDS011;2279;51.448;7.306;2023-09-19T00:40:45;263.73;;;109.70;;
4533;SDS011;2279;51.448;7.306;2023-09-19T00:43:11;250.50;;;103.27;;
4533;SDS011;2279;51.448;7.306;2023-09-19T00:45:37;249.33;;;103.77;;
4533;SDS011;2279;51.448;7.306;2023-09-19T00:48:03;249.00;;;101.77;;
4533;SDS011;2279;51.448;7.306;2023-09-19T00:50:33;254.37;;;107.97;;
4533;SDS011;2279;51.448;7.306;2023-09-19T00:53:00;247.43;;;99.93;;
4533;SDS011;2279;51.448;7.306;2023-09-19T00:55:26;248.07;;;99.20;;
4533;SDS011;2279;51.448;7.306;2023-09-19T00:57:55;249.17;;;100.77;;
4533;SDS011;2279;51.448;7.306;2023-09-19T01:00:21;250.57;;;103.17;;
4533;SDS011;2279;51.448;7.306;2023-09-19T01:02:48;249.67;;;103.20;;
4533;SDS011;2279;51.448;7.306;2023-09-19T01:05:14;252.83;;;105.43;;
4533;SDS011;2279;51.448;7.306;2023-09-19T01:07:41;251.53;;;103.00;;
4533;SDS011;2279;51.448;7.306;2023-09-19T01:10:14;247.17;;;98.70;;
4533;SDS011;2279;51.448;7.306;2023-09-19T01:15:21;251.07;;;104.33;;
4533;SDS011;2279;51.448;7.306;2023-09-19T01:17:51;249.30;;;99.37;;
4533;SDS011;2279;51.448;7.306;2023-09-19T01:20:25;249.23;;;99.67;;
4533;SDS011;2279;51.448;7.306;2023-09-19T01:22:56;250.00;;;102.50;;
4533;SDS011;2279;51.448;7.306;2023-09-19T01:28:30;249.37;;;100.47;;
4533;SDS011;2279;51.448;7.306;2023-09-19T01:31:01;249.37;;;99.97;;
4533;SDS011;2279;51.448;7.306;2023-09-19T01:33:28;250.97;;;100.67;;
4533;SDS011;2279;51.448;7.306;2023-09-19T01:35:59;252.20;;;101.57;;
4533;SDS011;2279;51.448;7.306;2023-09-19T01:38:24;251.87;;;101.47;;
4533;SDS011;2279;51.448;7.306;2023-09-19T01:41:03;250.70;;;99.80;;
4533;SDS011;2279;51.448;7.306;2023-09-19T01:43:32;248.83;;;99.03;;
4533;SDS011;2279;51.448;7.306;2023-09-19T01:46:16;252.27;;;103.07;;
4533;SDS011;2279;51.448;7.306;2023-09-19T01:51:18;251.30;;;103.17;;
4533;SDS011;2279;51.448;7.306;2023-09-19T01:53:57;247.27;;;96.27;;
4533;SDS011;2279;51.448;7.306;2023-09-19T01:56:37;247.17;;;98.23;;
4533;SDS011;2279;51.448;7.306;2023-09-19T01:59:07;247.17;;;98.87;;
4533;SDS011;2279;51.448;7.306;2023-09-19T02:01:34;245.63;;;97.93;;
4533;SDS011;2279;51.448;7.306;2023-09-19T02:04:02;248.37;;;99.97;;
4533;SDS011;2279;51.448;7.306;2023-09-19T02:06:28;247.37;;;99.03;;
4533;SDS011;2279;51.448;7.306;2023-09-19T02:08:54;250.03;;;104.00;;
4533;SDS011;2279;51.448;7.306;2023-09-19T02:11:20;246.57;;;97.27;;
4533;SDS011;2279;51.448;7.306;2023-09-19T02:13:46;247.97;;;100.77;;
4533;SDS011;2279;51.448;7.306;2023-09-19T02:16:12;247.73;;;98.57;;
4533;SDS011;2279;51.448;7.306;2023-09-19T02:18:38;249.37;;;100.23;;
4533;SDS011;2279;51.448;7.306;2023-09-19T02:21:04;247.47;;;99.47;;
4533;SDS011;2279;51.448;7.306;2023-09-19T02:23:32;248.17;;;100.57;;
4533;SDS011;2279;51.448;7.306;2023-09-19T02:25:58;247.30;;;101.80;;
4533;SDS011;2279;51.448;7.306;2023-09-19T02:28:25;248.47;;;99.27;;
4533;SDS011;2279;51.448;7.306;2023-09-19T02:30:55;245.87;;;98.50;;
4533;SDS011;2279;51.448;7.306;2023-09-19T02:33:21;250.43;;;102.30;;
4533;SDS011;2279;51.448;7.306;2023-09-19T02:35:47;247.17;;;96.93;;
4533;SDS011;2279;51.448;7.306;2023-09-19T02:38:13;248.10;;;100.67;;
4533;SDS011;2279;51.448;7.306;2023-09-19T02:40:43;252.20;;;103.30;;
4533;SDS011;2279;51.448;7.306;2023-09-19T02:43:09;246.97;;;99.10;;
4533;SDS011;2279;51.448;7.306;2023-09-19T02:45:35;246.33;;;96.60;;
4533;SDS011;2279;51.448;7.306;2023-09-19T02:48:01;246.20;;;96.77;;
4533;SDS011;2279;51.448;7.306;2023-09-19T02:50:27;248.07;;;98.73;;
4533;SDS011;2279;51.448;7.306;2023-09-19T02:52:53;248.33;;;99.47;;
4533;SDS011;2279;51.448;7.306;2023-09-19T02:55:19;248.03;;;98.77;;
4533;SDS011;2279;51.448;7.306;2023-09-19T02:57:50;246.77;;;97.37;;
4533;SDS011;2279;51.448;7.306;2023-09-19T03:00:17;246.23;;;95.53;;
4533;SDS011;2279;51.448;7.306;2023-09-19T03:02:55;246.47;;;97.53;;
4533;SDS011;2279;51.448;7.306;2023-09-19T03:05:22;247.30;;;97.50;;
4533;SDS011;2279;51.448;7.306;2023-09-19T03:07:51;247.77;;;97.43;;
4533;SDS011;2279;51.448;7.306;2023-09-19T03:10:18;249.80;;;99.37;;
4533;SDS011;2279;51.448;7.306;2023-09-19T03:12:44;248.60;;;100.47;;
4533;SDS011;2279;51.448;7.306;2023-09-19T03:15:10;245.50;;;94.70;;
4533;SDS011;2279;51.448;7.306;2023-09-19T03:17:36;247.63;;;97.17;;
4533;SDS011;2279;51.448;7.306;2023-09-19T03:20:03;247.43;;;97.77;;
4533;SDS011;2279;51.448;7.306;2023-09-19T03:22:32;246.27;;;97.93;;
4533;SDS011;2279;51.448;7.306;2023-09-19T03:24:59;247.43;;;97.20;;
4533;SDS011;2279;51.448;7.306;2023-09-19T03:27:25;246.30;;;96.73;;
4533;SDS011;2279;51.448;7.306;2023-09-19T03:29:52;247.03;;;101.53;;
4533;SDS011;2279;51.448;7.306;2023-09-19T03:32:18;249.17;;;99.77;;
4533;SDS011;2279;51.448;7.306;2023-09-19T03:34:45;247.23;;;98.30;;
4533;SDS011;2279;51.448;7.306;2023-09-19T03:37:13;250.70;;;102.97;;
4533;SDS011;2279;51.448;7.306;2023-09-19T03:39:39;247.43;;;98.47;;
4533;SDS011;2279;51.448;7.306;2023-09-19T03:42:05;246.93;;;99.27;;
4533;SDS011;2279;51.448;7.306;2023-09-19T03:44:32;247.33;;;97.23;;
4533;SDS011;2279;51.448;7.306;2023-09-19T03:46:58;246.30;;;98.30;;
4533;SDS011;2279;51.448;7.306;2023-09-19T03:49:24;248.07;;;97.53;;
4533;SDS011;2279;51.448;7.306;2023-09-19T03:51:50;247.67;;;96.83;;
4533;SDS011;2279;51.448;7.306;2023-09-19T03:54:16;249.03;;;100.20;;
4533;SDS011;2279;51.448;7.306;2023-09-19T03:56:44;244.60;;;95.97;;
4533;SDS011;2279;51.448;7.306;2023-09-19T03:59:10;245.20;;;97.37;;
4533;SDS011;2279;51.448;7.306;2023-09-19T04:01:37;245.60;;;98.10;;
4533;SDS011;2279;51.448;7.306;2023-09-19T04:04:03;244.07;;;94.33;;
4533;SDS011;2279;51.448;7.306;2023-09-19T04:06:33;245.80;;;95.27;;
4533;SDS011;2279;51.448;7.306;2023-09-19T04:09:03;245.10;;;94.73;;
4533;SDS011;2279;51.448;7.306;2023-09-19T04:11:32;247.90;;;100.37;;
4533;SDS011;2279;51.448;7.306;2023-09-19T04:13:58;244.77;;;96.73;;
4533;SDS011;2279;51.448;7.306;2023-09-19T04:16:24;249.30;;;98.90;;
4533;SDS011;2279;51.448;7.306;2023-09-19T04:18:51;247.17;;;95.27;;
4533;SDS011;2279;51.448;7.306;2023-09-19T04:21:17;246.27;;;93.37;;
4533;SDS011;2279;51.448;7.306;2023-09-19T04:23:44;246.87;;;96.73;;
4533;SDS011;2279;51.448;7.306;2023-09-19T04:26:10;245.17;;;94.07;;
4533;SDS011;2279;51.448;7.306;2023-09-19T04:28:36;246.57;;;96.37;;
4533;SDS011;2279;51.448;7.306;2023-09-19T04:31:03;248.20;;;98.17;;
4533;SDS011;2279;51.448;7.306;2023-09-19T04:33:29;243.97;;;94.63;;
4533;SDS011;2279;51.448;7.306;2023-09-19T04:35:55;246.97;;;98.03;;
4533;SDS011;2279;51.448;7.306;2023-09-19T04:38:22;246.17;;;92.27;;
4533;SDS011;2279;51.448;7.306;2023-09-19T04:40:48;249.30;;;96.33;;
4533;SDS011;2279;51.448;7.306;2023-09-19T04:43:14;245.93;;;95.13;;
4533;SDS011;2279;51.448;7.306;2023-09-19T04:45:40;244.87;;;94.90;;
4533;SDS011;2279;51.448;7.306;2023-09-19T04:48:06;243.60;;;93.67;;
4533;SDS011;2279;51.448;7.306;2023-09-19T04:50:33;243.73;;;92.60;;
4533;SDS011;2279;51.448;7.306;2023-09-19T04:52:59;241.77;;;91.47;;
4533;SDS011;2279;51.448;7.306;2023-09-19T04:55:26;247.73;;;94.67;;
4533;SDS011;2279;51.448;7.306;2023-09-19T04:57:52;244.27;;;93.97;;
4533;SDS011;2279;51.448;7.306;2023-09-19T05:00:19;245.60;;;96.07;;
4533;SDS011;2279;51.448;7.306;2023-09-19T05:02:52;246.33;;;97.27;;
4533;SDS011;2279;51.448;7.306;2023-09-19T05:05:18;244.13;;;92.47;;
4533;SDS011;2279;51.448;7.306;2023-09-19T05:07:44;246.20;;;93.77;;
4533;SDS011;2279;51.448;7.306;2023-09-19T05:10:11;243.10;;;90.70;;
4533;SDS011;2279;51.448;7.306;2023-09-19T05:12:37;244.87;;;93.60;;
4533;SDS011;2279;51.448;7.306;2023-09-19T05:15:04;242.60;;;89.43;;
4533;SDS011;2279;51.448;7.306;2023-09-19T05:17:31;245.43;;;93.70;;
4533;SDS011;2279;51.448;7.306;2023-09-19T05:19:57;248.10;;;96.97;;
4533;SDS011;2279;51.448;7.306;2023-09-19T05:22:28;243.30;;;93.60;;
4533;SDS011;2279;51.448;7.306;2023-09-19T05:24:54;241.33;;;89.13;;
4533;SDS011;2279;51.448;7.306;2023-09-19T05:27:20;248.43;;;98.37;;
4533;SDS011;2279;51.448;7.306;2023-09-19T05:29:46;243.63;;;93.30;;
4533;SDS011;2279;51.448;7.306;2023-09-19T05:32:14;244.37;;;92.23;;
4533;SDS011;2279;51.448;7.306;2023-09-19T05:34:41;243.97;;;95.63;;
4533;SDS011;2279;51.448;7.306;2023-09-19T05:37:07;243.10;;;93.17;;
4533;SDS011;2279;51.448;7.306;2023-09-19T05:39:33;244.67;;;94.60;;
4533;SDS011;2279;51.448;7.306;2023-09-19T05:41:59;244.57;;;91.33;;
4533;SDS011;2279;51.448;7.306;2023-09-19T05:44:25;243.60;;;92.87;;
4533;SDS011;2279;51.448;7.306;2023-09-19T05:46:51;245.03;;;95.33;;
4533;SDS011;2279;51.448;7.306;2023-09-19T05:49:17;244.80;;;96.37;;
4533;SDS011;2279;51.448;7.306;2023-09-19T05:51:46;248.17;;;101.13;;
4533;SDS011;2279;51.448;7.306;2023-09-19T05:54:12;244.00;;;95.07;;
4533;SDS011;2279;51.448;7.306;2023-09-19T05:56:38;245.63;;;96.53;;
4533;SDS011;2279;51.448;7.306;2023-09-19T05:59:04;244.40;;;95.57;;
4533;SDS011;2279;51.448;7.306;2023-09-19T06:01:30;245.33;;;93.47;;
4533;SDS011;2279;51.448;7.306;2023-09-19T06:03:59;246.40;;;94.30;;
4533;SDS011;2279;51.448;7.306;2023-09-19T06:06:25;247.10;;;98.17;;
4533;SDS011;2279;51.448;7.306;2023-09-19T06:08:51;249.20;;;98.73;;
4533;SDS011;2279;51.448;7.306;2023-09-19T06:11:17;246.97;;;95.57;;
4533;SDS011;2279;51.448;7.306;2023-09-19T06:13:45;247.30;;;99.00;;
4533;SDS011;2279;51.448;7.306;2023-09-19T06:16:12;248.00;;;101.17;;
4533;SDS011;2279;51.448;7.306;2023-09-19T06:18:38;245.57;;;96.57;;
4533;SDS011;2279;51.448;7.306;2023-09-19T06:21:04;244.97;;;96.03;;
4533;SDS011;2279;51.448;7.306;2023-09-19T06:23:33;245.87;;;95.90;;
4533;SDS011;2279;51.448;7.306;2023-09-19T06:25:59;245.07;;;94.37;;
4533;SDS011;2279;51.448;7.306;2023-09-19T06:28:25;245.50;;;94.13;;
4533;SDS011;2279;51.448;7.306;2023-09-19T06:30:53;249.27;;;97.80;;
4533;SDS011;2279;51.448;7.306;2023-09-19T06:33:20;249.63;;;100.27;;
4533;SDS011;2279;51.448;7.306;2023-09-19T06:35:47;244.97;;;93.63;;
4533;SDS011;2279;51.448;7.306;2023-09-19T06:38:13;249.37;;;100.27;;
4533;SDS011;2279;51.448;7.306;2023-09-19T06:40:40;243.43;;;95.77;;
4533;SDS011;2279;51.448;7.306;2023-09-19T06:43:09;245.03;;;93.57;;
4533;SDS011;2279;51.448;7.306;2023-09-19T06:45:35;244.13;;;95.73;;
4533;SDS011;2279;51.448;7.306;2023-09-19T06:48:01;245.03;;;93.97;;
4533;SDS011;2279;51.448;7.306;2023-09-19T06:50:28;246.33;;;95.53;;
4533;SDS011;2279;51.448;7.306;2023-09-19T06:52:55;246.87;;;101.77;;
4533;SDS011;2279;51.448;7.306;2023-09-19T06:55:24;247.77;;;95.83;;
4533;SDS011;2279;51.448;7.306;2023-09-19T06:57:53;246.57;;;96.53;;
4533;SDS011;2279;51.448;7.306;2023-09-19T07:00:19;245.10;;;92.33;;
4533;SDS011;2279;51.448;7.306;2023-09-19T07:02:58;243.63;;;94.50;;
4533;SDS011;2279;51.448;7.306;2023-09-19T07:05:25;245.47;;;93.13;;
4533;SDS011;2279;51.448;7.306;2023-09-19T07:07:52;244.67;;;92.03;;
4533;SDS011;2279;51.448;7.306;2023-09-19T07:10:20;245.80;;;95.17;;
4533;SDS011;2279;51.448;7.306;2023-09-19T07:12:52;245.53;;;94.67;;
4533;SDS011;2279;51.448;7.306;2023-09-19T07:15:19;247.40;;;95.13;;
4533;SDS011;2279;51.448;7.306;2023-09-19T07:17:48;246.70;;;94.67;;
4533;SDS011;2279;51.448;7.306;2023-09-19T07:20:14;249.77;;;97.23;;
4533;SDS011;2279;51.448;7.306;2023-09-19T07:22:41;246.47;;;93.20;;
4533;SDS011;2279;51.448;7.306;2023-09-19T07:25:07;243.10;;;90.87;;
4533;SDS011;2279;51.448;7.306;2023-09-19T07:27:33;245.53;;;95.00;;
4533;SDS011;2279;51.448;7.306;2023-09-19T07:29:59;247.43;;;95.10;;
4533;SDS011;2279;51.448;7.306;2023-09-19T07:32:25;248.13;;;95.47;;
4533;SDS011;2279;51.448;7.306;2023-09-19T07:34:51;247.73;;;93.73;;
4533;SDS011;2279;51.448;7.306;2023-09-19T07:37:17;250.73;;;98.37;;
4533;SDS011;2279;51.448;7.306;2023-09-19T07:39:43;245.07;;;93.93;;
4533;SDS011;2279;51.448;7.306;2023-09-19T07:42:09;249.17;;;100.03;;
4533;SDS011;2279;51.448;7.306;2023-09-19T07:44:36;246.27;;;98.67;;
4533;SDS011;2279;51.448;7.306;2023-09-19T07:47:03;242.67;;;92.30;;
4533;SDS011;2279;51.448;7.306;2023-09-19T07:49:29;244.97;;;92.87;;
4533;SDS011;2279;51.448;7.306;2023-09-19T07:51:55;245.33;;;93.77;;
4533;SDS011;2279;51.448;7.306;2023-09-19T07:54:22;246.27;;;95.87;;
4533;SDS011;2279;51.448;7.306;2023-09-19T07:56:48;246.80;;;96.27;;
4533;SDS011;2279;51.448;7.306;2023-09-19T07:59:14;248.37;;;101.23;;
4533;SDS011;2279;51.448;7.306;2023-09-19T08:01:41;248.03;;;98.53;;
4533;SDS011;2279;51.448;7.306;2023-09-19T08:04:09;249.97;;;98.63;;
4533;SDS011;2279;51.448;7.306;2023-09-19T08:06:35;250.23;;;102.07;;
4533;SDS011;2279;51.448;7.306;2023-09-19T08:09:03;251.70;;;99.77;;
4533;SDS011;2279;51.448;7.306;2023-09-19T08:11:35;251.37;;;100.70;;
4533;SDS011;2279;51.448;7.306;2023-09-19T08:14:01;248.97;;;102.40;;
4533;SDS011;2279;51.448;7.306;2023-09-19T08:16:27;251.03;;;101.83;;
4533;SDS011;2279;51.448;7.306;2023-09-19T08:18:53;249.50;;;100.67;;
4533;SDS011;2279;51.448;7.306;2023-09-19T08:21:21;251.03;;;99.60;;
4533;SDS011;2279;51.448;7.306;2023-09-19T08:23:48;245.07;;;96.53;;
4533;SDS011;2279;51.448;7.306;2023-09-19T08:26:14;250.53;;;102.53;;
4533;SDS011;2279;51.448;7.306;2023-09-19T08:28:40;243.80;;;98.33;;
4533;SDS011;2279;51.448;7.306;2023-09-19T08:31:07;247.37;;;101.17;;
4533;SDS011;2279;51.448;7.306;2023-09-19T08:33:34;249.97;;;101.37;;
4533;SDS011;2279;51.448;7.306;2023-09-19T08:36:00;252.77;;;104.20;;
4533;SDS011;2279;51.448;7.306;2023-09-19T08:38:29;248.03;;;102.07;;
4533;SDS011;2279;51.448;7.306;2023-09-19T08:40:58;246.07;;;98.43;;
4533;SDS011;2279;51.448;7.306;2023-09-19T08:43:25;252.13;;;104.37;;
4533;SDS011;2279;51.448;7.306;2023-09-19T08:45:58;244.60;;;97.10;;
4533;SDS011;2279;51.448;7.306;2023-09-19T08:48:29;249.27;;;103.93;;
4533;SDS011;2279;51.448;7.306;2023-09-19T08:51:07;249.37;;;102.50;;
4533;SDS011;2279;51.448;7.306;2023-09-19T08:56:03;248.90;;;100.07;;
4533;SDS011;2279;51.448;7.306;2023-09-19T08:58:31;253.17;;;108.53;;
4533;SDS011;2279;51.448;7.306;2023-09-19T09:01:00;249.27;;;105.57;;
4533;SDS011;2279;51.448;7.306;2023-09-19T09:03:26;251.10;;;104.80;;
4533;SDS011;2279;51.448;7.306;2023-09-19T09:05:52;257.60;;;113.37;;
4533;SDS011;2279;51.448;7.306;2023-09-19T09:08:20;257.93;;;117.07;;
4533;SDS011;2279;51.448;7.306;2023-09-19T09:10:46;256.30;;;112.87;;
4533;SDS011;2279;51.448;7.306;2023-09-19T09:13:13;254.00;;;114.27;;
4533;SDS011;2279;51.448;7.306;2023-09-19T09:15:40;249.03;;;106.73;;
4533;SDS011;2279;51.448;7.306;2023-09-19T09:18:06;250.73;;;107.37;;
4533;SDS011;2279;51.448;7.306;2023-09-19T09:20:32;258.67;;;115.40;;
4533;SDS011;2279;51.448;7.306;2023-09-19T09:22:58;251.50;;;107.53;;
4533;SDS011;2279;51.448;7.306;2023-09-19T09:25:46;256.93;;;115.90;;
4533;SDS011;2279;51.448;7.306;2023-09-19T09:28:11;253.77;;;110.30;;
4533;SDS011;2279;51.448;7.306;2023-09-19T09:30:37;250.70;;;105.70;;
4533;SDS011;2279;51.448;7.306;2023-09-19T09:33:10;252.63;;;110.13;;
4533;SDS011;2279;51.448;7.306;2023-09-19T09:35:37;252.03;;;113.33;;
4533;SDS011;2279;51.448;7.306;2023-09-19T09:38:07;251.40;;;112.47;;
4533;SDS011;2279;51.448;7.306;2023-09-19T09:40:47;258.77;;;117.47;;
4533;SDS011;2279;51.448;7.306;2023-09-19T09:46:12;254.33;;;114.23;;
4533;SDS011;2279;51.448;7.306;2023-09-19T09:48:48;255.00;;;116.40;;
4533;SDS011;2279;51.448;7.306;2023-09-19T09:51:41;251.30;;;110.40;;
4533;SDS011;2279;51.448;7.306;2023-09-19T09:56:58;255.53;;;118.20;;
4533;SDS011;2279;51.448;7.306;2023-09-19T10:02:13;252.77;;;114.97;;
4533;SDS011;2279;51.448;7.306;2023-09-19T10:04:45;250.67;;;112.47;;
4533;SDS011;2279;51.448;7.306;2023-09-19T10:07:26;252.60;;;116.27;;
4533;SDS011;2279;51.448;7.306;2023-09-19T10:09:57;250.67;;;113.57;;
4533;SDS011;2279;51.448;7.306;2023-09-19T10:12:29;251.57;;;116.37;;
4533;SDS011;2279;51.448;7.306;2023-09-19T10:14:56;249.70;;;113.70;;
4533;SDS011;2279;51.448;7.306;2023-09-19T10:17:25;253.03;;;117.47;;
4533;SDS011;2279;51.448;7.306;2023-09-19T10:19:56;249.47;;;110.37;;
4533;SDS011;2279;51.448;7.306;2023-09-19T10:22:23;252.97;;;117.30;;
4533;SDS011;2279;51.448;7.306;2023-09-19T10:24:51;253.13;;;114.67;;
4533;SDS011;2279;51.448;7.306;2023-09-19T10:27:19;252.97;;;114.40;;
4533;SDS011;2279;51.448;7.306;2023-09-19T10:29:48;250.90;;;118.93;;
4533;SDS011;2279;51.448;7.306;2023-09-19T10:32:22;250.30;;;113.23;;
4533;SDS011;2279;51.448;7.306;2023-09-19T10:34:49;249.50;;;116.07;;
4533;SDS011;2279;51.448;7.306;2023-09-19T10:37:18;250.30;;;115.30;;
4533;SDS011;2279;51.448;7.306;2023-09-19T10:39:46;256.37;;;123.80;;
4533;SDS011;2279;51.448;7.306;2023-09-19T10:42:14;249.97;;;112.63;;
4533;SDS011;2279;51.448;7.306;2023-09-19T10:44:43;253.47;;;125.13;;
4533;SDS011;2279;51.448;7.306;2023-09-19T10:47:10;255.30;;;127.07;;
4533;SDS011;2279;51.448;7.306;2023-09-19T10:49:44;253.83;;;124.50;;
4533;SDS011;2279;51.448;7.306;2023-09-19T10:52:15;255.30;;;125.47;;
4533;SDS011;2279;51.448;7.306;2023-09-19T10:54:48;252.07;;;123.10;;
4533;SDS011;2279;51.448;7.306;2023-09-19T10:57:22;250.43;;;123.90;;
4533;SDS011;2279;51.448;7.306;2023-09-19T11:00:04;254.80;;;130.60;;
4533;SDS011;2279;51.448;7.306;2023-09-19T11:06:04;254.80;;;129.63;;
4533;SDS011;2279;51.448;7.306;2023-09-19T11:12:01;252.00;;;124.10;;
4533;SDS011;2279;51.448;7.306;2023-09-19T11:22:21;257.13;;;128.13;;
4533;SDS011;2279;51.448;7.306;2023-09-19T11:24:47;253.47;;;125.80;;
4533;SDS011;2279;51.448;7.306;2023-09-19T11:27:16;253.40;;;124.37;;
4533;SDS011;2279;51.448;7.306;2023-09-19T11:29:43;251.87;;;121.60;;
4533;SDS011;2279;51.448;7.306;2023-09-19T11:32:09;251.20;;;123.10;;
4533;SDS011;2279;51.448;7.306;2023-09-19T11:37:02;254.27;;;129.47;;
4533;SDS011;2279;51.448;7.306;2023-09-19T11:39:31;255.13;;;129.80;;
4533;SDS011;2279;51.448;7.306;2023-09-19T11:41:58;255.17;;;127.60;;
4533;SDS011;2279;51.448;7.306;2023-09-19T11:46:52;258.80;;;127.50;;
4533;SDS011;2279;51.448;7.306;2023-09-19T11:49:19;250.93;;;125.67;;
4533;SDS011;2279;51.448;7.306;2023-09-19T11:51:48;252.47;;;128.70;;
4533;SDS011;2279;51.448;7.306;2023-09-19T11:54:16;250.63;;;124.90;;
4533;SDS011;2279;51.448;7.306;2023-09-19T11:56:50;251.93;;;125.47;;
4533;SDS011;2279;51.448;7.306;2023-09-19T11:59:20;252.03;;;123.27;;
4533;SDS011;2279;51.448;7.306;2023-09-19T12:01:50;252.93;;;119.80;;
4533;SDS011;2279;51.448;7.306;2023-09-19T12:04:33;251.30;;;122.27;;
4533;SDS011;2279;51.448;7.306;2023-09-19T12:07:02;252.93;;;120.30;;
4533;SDS011;2279;51.448;7.306;2023-09-19T12:09:29;255.00;;;124.43;;
4533;SDS011;2279;51.448;7.306;2023-09-19T12:11:55;253.80;;;121.53;;
4533;SDS011;2279;51.448;7.306;2023-09-19T12:14:22;254.13;;;123.87;;
4533;SDS011;2279;51.448;7.306;2023-09-19T12:16:51;255.47;;;127.83;;
4533;SDS011;2279;51.448;7.306;2023-09-19T12:19:20;253.73;;;120.90;;
4533;SDS011;2279;51.448;7.306;2023-09-19T12:22:00;253.87;;;124.47;;
4533;SDS011;2279;51.448;7.306;2023-09-19T12:24:34;250.03;;;122.27;;
4533;SDS011;2279;51.448;7.306;2023-09-19T12:27:04;251.57;;;122.27;;
4533;SDS011;2279;51.448;7.306;2023-09-19T12:29:30;248.03;;;116.30;;
4533;SDS011;2279;51.448;7.306;2023-09-19T12:31:57;251.77;;;122.60;;
4533;SDS011;2279;51.448;7.306;2023-09-19T12:34:27;254.43;;;124.87;;
4533;SDS011;2279;51.448;7.306;2023-09-19T12:37:07;253.13;;;119.47;;
4533;SDS011;2279;51.448;7.306;2023-09-19T12:39:40;249.50;;;119.67;;
4533;SDS011;2279;51.448;7.306;2023-09-19T12:42:07;256.07;;;131.40;;
4533;SDS011;2279;51.448;7.306;2023-09-19T12:44:34;251.30;;;123.97;;
4533;SDS011;2279;51.448;7.306;2023-09-19T12:47:07;253.63;;;129.33;;
4533;SDS011;2279;51.448;7.306;2023-09-19T12:49:34;251.60;;;129.53;;
4533;SDS011;2279;51.448;7.306;2023-09-19T12:52:00;254.23;;;132.27;;
4533;SDS011;2279;51.448;7.306;2023-09-19T12:54:37;254.30;;;135.97;;
4533;SDS011;2279;51.448;7.306;2023-09-19T12:57:03;258.13;;;135.30;;
4533;SDS011;2279;51.448;7.306;2023-09-19T12:59:30;252.60;;;131.33;;
4533;SDS011;2279;51.448;7.306;2023-09-19T13:02:03;254.07;;;130.40;;
4533;SDS011;2279;51.448;7.306;2023-09-19T13:04:32;248.50;;;124.80;;
4533;SDS011;2279;51.448;7.306;2023-09-19T13:06:59;251.83;;;129.40;;
4533;SDS011;2279;51.448;7.306;2023-09-19T13:09:26;252.17;;;129.53;;
4533;SDS011;2279;51.448;7.306;2023-09-19T13:12:04;252.37;;;129.63;;
4533;SDS011;2279;51.448;7.306;2023-09-19T13:14:31;254.13;;;132.10;;
4533;SDS011;2279;51.448;7.306;2023-09-19T13:19:38;256.13;;;132.67;;
4533;SDS011;2279;51.448;7.306;2023-09-19T13:22:05;250.93;;;125.50;;
4533;SDS011;2279;51.448;7.306;2023-09-19T13:24:33;252.50;;;126.90;;
4533;SDS011;2279;51.448;7.306;2023-09-19T13:27:02;251.07;;;122.20;;
4533;SDS011;2279;51.448;7.306;2023-09-19T13:29:28;254.20;;;129.53;;
4533;SDS011;2279;51.448;7.306;2023-09-19T13:31:54;249.97;;;123.63;;
4533;SDS011;2279;51.448;7.306;2023-09-19T13:34:21;250.93;;;125.63;;
4533;SDS011;2279;51.448;7.306;2023-09-19T13:36:47;252.47;;;126.70;;
4533;SDS011;2279;51.448;7.306;2023-09-19T13:39:13;249.43;;;125.03;;
4533;SDS011;2279;51.448;7.306;2023-09-19T13:41:40;246.83;;;118.50;;
4533;SDS011;2279;51.448;7.306;2023-09-19T13:44:08;251.53;;;126.30;;
4533;SDS011;2279;51.448;7.306;2023-09-19T13:46:35;251.07;;;126.93;;
4533;SDS011;2279;51.448;7.306;2023-09-19T13:49:02;254.30;;;127.93;;
4533;SDS011;2279;51.448;7.306;2023-09-19T13:51:31;251.03;;;127.20;;
4533;SDS011;2279;51.448;7.306;2023-09-19T13:53:58;248.93;;;128.53;;
4533;SDS011;2279;51.448;7.306;2023-09-19T13:56:26;253.87;;;131.73;;
4533;SDS011;2279;51.448;7.306;2023-09-19T13:58:53;250.50;;;129.67;;
4533;SDS011;2279;51.448;7.306;2023-09-19T14:01:19;252.70;;;128.33;;
4533;SDS011;2279;51.448;7.306;2023-09-19T14:03:45;250.83;;;125.33;;
4533;SDS011;2279;51.448;7.306;2023-09-19T14:06:16;248.70;;;120.23;;
4533;SDS011;2279;51.448;7.306;2023-09-19T14:08:42;248.57;;;119.13;;
4533;SDS011;2279;51.448;7.306;2023-09-19T14:11:09;247.83;;;115.60;;
4533;SDS011;2279;51.448;7.306;2023-09-19T14:13:35;249.30;;;117.27;;
4533;SDS011;2279;51.448;7.306;2023-09-19T14:16:05;248.37;;;112.70;;
4533;SDS011;2279;51.448;7.306;2023-09-19T14:18:31;249.57;;;115.43;;
4533;SDS011;2279;51.448;7.306;2023-09-19T14:20:57;248.63;;;113.47;;
4533;SDS011;2279;51.448;7.306;2023-09-19T14:23:23;252.93;;;121.13;;
4533;SDS011;2279;51.448;7.306;2023-09-19T14:25:51;246.87;;;110.80;;
4533;SDS011;2279;51.448;7.306;2023-09-19T14:28:18;251.37;;;113.77;;
4533;SDS011;2279;51.448;7.306;2023-09-19T14:30:44;261.43;;;120.23;;
4533;SDS011;2279;51.448;7.306;2023-09-19T14:33:11;248.93;;;111.30;;
4533;SDS011;2279;51.448;7.306;2023-09-19T14:35:37;247.27;;;104.80;;
4533;SDS011;2279;51.448;7.306;2023-09-19T14:38:03;244.87;;;105.50;;
4533;SDS011;2279;51.448;7.306;2023-09-19T14:40:29;246.43;;;106.93;;
4533;SDS011;2279;51.448;7.306;2023-09-19T14:42:56;246.67;;;105.07;;
4533;SDS011;2279;51.448;7.306;2023-09-19T14:45:22;246.17;;;107.90;;
4533;SDS011;2279;51.448;7.306;2023-09-19T14:47:51;245.87;;;105.87;;
4533;SDS011;2279;51.448;7.306;2023-09-19T14:50:21;245.87;;;105.53;;
4533;SDS011;2279;51.448;7.306;2023-09-19T14:52:47;244.57;;;102.03;;
4533;SDS011;2279;51.448;7.306;2023-09-19T14:55:15;243.70;;;102.13;;
4533;SDS011;2279;51.448;7.306;2023-09-19T14:57:41;244.17;;;105.33;;
4533;SDS011;2279;51.448;7.306;2023-09-19T15:00:09;249.87;;;112.37;;
4533;SDS011;2279;51.448;7.306;2023-09-19T15:02:37;247.20;;;106.63;;
4533;SDS011;2279;51.448;7.306;2023-09-19T15:05:04;244.37;;;105.33;;
4533;SDS011;2279;51.448;7.306;2023-09-19T15:07:32;245.83;;;105.83;;
4533;SDS011;2279;51.448;7.306;2023-09-19T15:09:58;246.13;;;105.43;;
4533;SDS011;2279;51.448;7.306;2023-09-19T15:12:24;243.37;;;100.93;;